sensor_id;sensor_type;location;lat;lon;timestamp;pressure;altitude;pressure_sealevel;temperature;humidity
71126;BME280;58785;55.566;38.058;2023-03-22T00:02:00;99727.78;;;6.00;73.82
71126;BME280;58785;55.566;38.058;2023-03-22T00:04:26;99730.56;;;5.98;73.56
71126;BME280;58785;55.566;38.058;2023-03-22T00:06:52;99730.00;;;5.95;73.68
71126;BME280;58785;55.566;38.058;2023-03-22T00:09:17;99719.66;;;5.92;74.03
71126;BME280;58785;55.566;38.058;2023-03-22T00:11:43;99740.44;;;5.96;74.20
71126;BME280;58785;55.566;38.058;2023-03-22T00:14:10;99733.94;;;5.89;74.10
71126;BME280;58785;55.566;38.058;2023-03-22T00:16:36;99746.00;;;5.93;73.83
71126;BME280;58785;55.566;38.058;2023-03-22T00:19:01;99739.88;;;5.93;74.33
71126;BME280;58785;55.566;38.058;2023-03-22T00:21:27;99733.00;;;5.90;73.73
71126;BME280;58785;55.566;38.058;2023-03-22T00:23:52;99735.41;;;5.93;74.23
71126;BME280;58785;55.566;38.058;2023-03-22T00:26:18;99742.38;;;5.94;73.96
71126;BME280;58785;55.566;38.058;2023-03-22T00:28:44;99738.78;;;5.95;73.89
71126;BME280;58785;55.566;38.058;2023-03-22T00:31:10;99742.38;;;5.94;74.53
71126;BME280;58785;55.566;38.058;2023-03-22T00:33:35;99743.22;;;5.95;74.30
71126;BME280;58785;55.566;38.058;2023-03-22T00:36:09;99733.38;;;5.86;74.02
71126;BME280;58785;55.566;38.058;2023-03-22T00:38:35;99747.69;;;5.94;73.77
71126;BME280;58785;55.566;38.058;2023-03-22T00:41:21;99762.72;;;5.94;74.16
71126;BME280;58785;55.566;38.058;2023-03-22T00:43:48;99748.00;;;5.90;74.03
71126;BME280;58785;55.566;38.058;2023-03-22T00:46:16;99759.38;;;5.92;74.03
71126;BME280;58785;55.566;38.058;2023-03-22T00:48:42;99760.53;;;5.88;74.38
71126;BME280;58785;55.566;38.058;2023-03-22T00:51:09;99763.03;;;5.89;74.52
71126;BME280;58785;55.566;38.058;2023-03-22T00:53:35;99759.34;;;5.81;74.44
71126;BME280;58785;55.566;38.058;2023-03-22T00:56:02;99761.88;;;5.82;74.54
71126;BME280;58785;55.566;38.058;2023-03-22T00:58:28;99768.13;;;5.81;74.47
71126;BME280;58785;55.566;38.058;2023-03-22T01:00:54;99755.19;;;5.67;74.55
71126;BME280;58785;55.566;38.058;2023-03-22T01:03:20;99778.13;;;5.77;74.62
71126;BME280;58785;55.566;38.058;2023-03-22T01:05:51;99778.38;;;5.74;74.40
71126;BME280;58785;55.566;38.058;2023-03-22T01:08:20;99787.16;;;5.75;74.56
71126;BME280;58785;55.566;38.058;2023-03-22T01:10:47;99790.06;;;5.72;74.65
71126;BME280;58785;55.566;38.058;2023-03-22T01:13:13;99790.28;;;5.69;75.22
71126;BME280;58785;55.566;38.058;2023-03-22T01:15:39;99784.66;;;5.73;74.91
71126;BME280;58785;55.566;38.058;2023-03-22T01:18:06;99790.91;;;5.72;74.91
71126;BME280;58785;55.566;38.058;2023-03-22T01:20:32;99797.16;;;5.71;74.80
71126;BME280;58785;55.566;38.058;2023-03-22T01:22:58;99793.19;;;5.66;74.96
71126;BME280;58785;55.566;38.058;2023-03-22T01:25:24;99800.03;;;5.68;74.78
71126;BME280;58785;55.566;38.058;2023-03-22T01:27:50;99800.03;;;5.68;75.28
71126;BME280;58785;55.566;38.058;2023-03-22T01:30:16;99784.91;;;5.59;74.91
71126;BME280;58785;55.566;38.058;2023-03-22T01:32:42;99788.16;;;5.63;75.49
71126;BME280;58785;55.566;38.058;2023-03-22T01:35:08;99804.34;;;5.69;75.15
71126;BME280;58785;55.566;38.058;2023-03-22T01:37:34;99810.88;;;5.65;75.02
71126;BME280;58785;55.566;38.058;2023-03-22T01:39:59;99814.34;;;5.66;75.48
71126;BME280;58785;55.566;38.058;2023-03-22T01:42:25;99821.31;;;5.67;75.69
71126;BME280;58785;55.566;38.058;2023-03-22T01:47:47;99811.22;;;5.61;75.71
71126;BME280;58785;55.566;38.058;2023-03-22T01:50:16;99825.91;;;5.65;75.45
71126;BME280;58785;55.566;38.058;2023-03-22T01:52:43;99823.50;;;5.62;75.64
71126;BME280;58785;55.566;38.058;2023-03-22T01:55:10;99830.34;;;5.64;75.46
71126;BME280;58785;55.566;38.058;2023-03-22T01:57:37;99830.47;;;5.63;76.22
71126;BME280;58785;55.566;38.058;2023-03-22T02:00:05;99828.91;;;5.60;76.20
71126;BME280;58785;55.566;38.058;2023-03-22T02:02:41;99828.91;;;5.60;76.13
71126;BME280;58785;55.566;38.058;2023-03-22T02:05:08;99831.53;;;5.60;75.96
71126;BME280;58785;55.566;38.058;2023-03-22T02:07:35;99838.75;;;5.58;76.39
71126;BME280;58785;55.566;38.058;2023-03-22T02:10:02;99848.63;;;5.56;76.45
71126;BME280;58785;55.566;38.058;2023-03-22T02:15:57;99848.75;;;5.55;76.31
71126;BME280;58785;55.566;38.058;2023-03-22T02:31:22;99856.69;;;5.55;76.76
71126;BME280;58785;55.566;38.058;2023-03-22T02:34:24;99860.31;;;5.54;76.57
71126;BME280;58785;55.566;38.058;2023-03-22T02:40:07;99864.00;;;5.51;76.95
71126;BME280;58785;55.566;38.058;2023-03-22T02:43:51;99867.53;;;5.52;76.37
71126;BME280;58785;55.566;38.058;2023-03-22T02:45:50;99857.03;;;5.50;76.92
71126;BME280;58785;55.566;38.058;2023-03-22T02:48:28;99870.25;;;5.50;76.59
71126;BME280;58785;55.566;38.058;2023-03-22T02:51:25;99863.66;;;5.44;76.79
71126;BME280;58785;55.566;38.058;2023-03-22T02:54:00;99872.91;;;5.50;76.87
71126;BME280;58785;55.566;38.058;2023-03-22T02:56:34;99867.75;;;5.48;76.73
71126;BME280;58785;55.566;38.058;2023-03-22T02:59:05;99875.47;;;5.52;76.90
71126;BME280;58785;55.566;38.058;2023-03-22T03:01:49;99883.38;;;5.52;77.18
71126;BME280;58785;55.566;38.058;2023-03-22T03:04:20;99869.53;;;5.48;77.04
71126;BME280;58785;55.566;38.058;2023-03-22T03:06:48;99886.88;;;5.52;76.99
71126;BME280;58785;55.566;38.058;2023-03-22T03:09:18;99890.34;;;5.53;77.06
71126;BME280;58785;55.566;38.058;2023-03-22T03:11:46;99882.91;;;5.46;77.31
71126;BME280;58785;55.566;38.058;2023-03-22T03:22:22;99902.38;;;5.57;76.69
71126;BME280;58785;55.566;38.058;2023-03-22T03:24:59;99904.16;;;5.56;76.73
71126;BME280;58785;55.566;38.058;2023-03-22T03:27:45;99905.13;;;5.55;76.56
71126;BME280;58785;55.566;38.058;2023-03-22T03:30:21;99906.31;;;5.51;76.85
71126;BME280;58785;55.566;38.058;2023-03-22T03:32:55;99897.31;;;5.42;77.34
71126;BME280;58785;55.566;38.058;2023-03-22T03:35:27;99922.94;;;5.53;76.87
71126;BME280;58785;55.566;38.058;2023-03-22T03:38:03;99910.75;;;5.51;77.28
71126;BME280;58785;55.566;38.058;2023-03-22T03:40:36;99917.53;;;5.55;76.96
71126;BME280;58785;55.566;38.058;2023-03-22T03:43:04;99918.47;;;5.54;77.12
71126;BME280;58785;55.566;38.058;2023-03-22T03:45:31;99929.78;;;5.56;77.16
71126;BME280;58785;55.566;38.058;2023-03-22T03:48:04;99931.56;;;5.55;77.29
71126;BME280;58785;55.566;38.058;2023-03-22T03:50:31;99922.31;;;5.49;77.01
71126;BME280;58785;55.566;38.058;2023-03-22T03:52:57;99926.63;;;5.51;76.97
71126;BME280;58785;55.566;38.058;2023-03-22T03:55:23;99938.69;;;5.55;77.13
71126;BME280;58785;55.566;38.058;2023-03-22T03:57:50;99944.69;;;5.57;77.21
71126;BME280;58785;55.566;38.058;2023-03-22T04:00:17;99936.63;;;5.58;77.43
71126;BME280;58785;55.566;38.058;2023-03-22T04:02:43;99947.06;;;5.60;76.94
71126;BME280;58785;55.566;38.058;2023-03-22T04:05:10;99942.16;;;5.55;76.99
71126;BME280;58785;55.566;38.058;2023-03-22T04:07:36;99949.84;;;5.58;76.75
71126;BME280;58785;55.566;38.058;2023-03-22T04:10:03;99951.53;;;5.59;76.69
71126;BME280;58785;55.566;38.058;2023-03-22T04:12:29;99955.25;;;5.57;76.77
71126;BME280;58785;55.566;38.058;2023-03-22T04:14:55;99954.66;;;5.53;76.79
71126;BME280;58785;55.566;38.058;2023-03-22T04:17:21;99958.28;;;5.52;77.25
71126;BME280;58785;55.566;38.058;2023-03-22T04:19:48;99960.53;;;5.57;77.20
71126;BME280;58785;55.566;38.058;2023-03-22T04:22:14;99976.28;;;5.58;76.89
71126;BME280;58785;55.566;38.058;2023-03-22T04:24:43;99972.94;;;5.56;76.92
71126;BME280;58785;55.566;38.058;2023-03-22T04:27:18;99979.78;;;5.59;76.99
71126;BME280;58785;55.566;38.058;2023-03-22T04:29:44;99971.25;;;5.55;76.89
71126;BME280;58785;55.566;38.058;2023-03-22T04:32:19;99967.75;;;5.55;77.63
71126;BME280;58785;55.566;38.058;2023-03-22T04:34:51;99979.31;;;5.54;77.15
71126;BME280;58785;55.566;38.058;2023-03-22T04:37:18;99978.47;;;5.53;77.45
71126;BME280;58785;55.566;38.058;2023-03-22T04:39:44;99977.63;;;5.53;77.61
71126;BME280;58785;55.566;38.058;2023-03-22T04:42:10;99986.28;;;5.55;77.45
71126;BME280;58785;55.566;38.058;2023-03-22T04:44:36;99983.88;;;5.52;77.46
71126;BME280;58785;55.566;38.058;2023-03-22T04:47:02;99989.41;;;5.60;77.40
71126;BME280;58785;55.566;38.058;2023-03-22T04:49:28;99987.00;;;5.57;77.75
71126;BME280;58785;55.566;38.058;2023-03-22T04:51:55;99989.31;;;5.61;77.45
71126;BME280;58785;55.566;38.058;2023-03-22T04:54:22;99994.22;;;5.66;77.04
71126;BME280;58785;55.566;38.058;2023-03-22T04:56:48;99991.44;;;5.67;77.92
71126;BME280;58785;55.566;38.058;2023-03-22T04:59:14;100002.53;;;5.72;77.43
71126;BME280;58785;55.566;38.058;2023-03-22T05:05:22;100004.56;;;5.80;77.04
71126;BME280;58785;55.566;38.058;2023-03-22T05:07:48;100002.66;;;5.82;77.50
71126;BME280;58785;55.566;38.058;2023-03-22T05:10:14;100013.03;;;5.96;76.94
71126;BME280;58785;55.566;38.058;2023-03-22T05:12:39;100007.72;;;6.08;76.43
71126;BME280;58785;55.566;38.058;2023-03-22T05:15:06;100005.78;;;6.21;76.94
71126;BME280;58785;55.566;38.058;2023-03-22T05:17:31;100016.25;;;6.33;76.37
71126;BME280;58785;55.566;38.058;2023-03-22T05:19:57;100021.16;;;6.49;76.63
71126;BME280;58785;55.566;38.058;2023-03-22T05:22:22;100018.84;;;6.56;75.67
71126;BME280;58785;55.566;38.058;2023-03-22T05:24:48;100030.38;;;6.66;75.58
71126;BME280;58785;55.566;38.058;2023-03-22T05:27:14;100038.22;;;6.68;75.71
71126;BME280;58785;55.566;38.058;2023-03-22T05:29:39;100030.78;;;6.61;75.36
71126;BME280;58785;55.566;38.058;2023-03-22T05:32:10;100036.44;;;6.57;75.56
71126;BME280;58785;55.566;38.058;2023-03-22T05:34:35;100031.16;;;6.46;75.71
71126;BME280;58785;55.566;38.058;2023-03-22T05:37:02;100037.53;;;6.43;75.71
71126;BME280;58785;55.566;38.058;2023-03-22T05:39:27;100056.69;;;6.36;76.76
71126;BME280;58785;55.566;38.058;2023-03-22T05:41:53;100049.47;;;6.15;76.92
71126;BME280;58785;55.566;38.058;2023-03-22T05:44:19;100057.78;;;5.99;77.50
71126;BME280;58785;55.566;38.058;2023-03-22T05:46:44;100058.09;;;5.84;77.57
71126;BME280;58785;55.566;38.058;2023-03-22T05:49:10;100073.69;;;5.64;77.83
71126;BME280;58785;55.566;38.058;2023-03-22T05:51:36;100071.59;;;5.45;78.22
71126;BME280;58785;55.566;38.058;2023-03-22T05:54:07;100077.94;;;5.32;78.69
71126;BME280;58785;55.566;38.058;2023-03-22T05:56:33;100094.38;;;5.24;78.75
71126;BME280;58785;55.566;38.058;2023-03-22T05:58:59;100096.00;;;5.14;78.98
71126;BME280;58785;55.566;38.058;2023-03-22T06:01:25;100097.75;;;5.02;78.83
71126;BME280;58785;55.566;38.058;2023-03-22T06:03:51;100098.63;;;4.90;79.16
71126;BME280;58785;55.566;38.058;2023-03-22T06:06:16;100093.41;;;4.77;79.44
71126;BME280;58785;55.566;38.058;2023-03-22T06:08:42;100099.63;;;4.76;79.20
71126;BME280;58785;55.566;38.058;2023-03-22T06:11:09;100102.28;;;4.76;79.31
71126;BME280;58785;55.566;38.058;2023-03-22T06:13:35;100097.94;;;4.75;79.04
71126;BME280;58785;55.566;38.058;2023-03-22T06:16:02;100097.00;;;4.76;78.96
71126;BME280;58785;55.566;38.058;2023-03-22T06:18:29;100105.94;;;4.86;78.80
71126;BME280;58785;55.566;38.058;2023-03-22T06:20:55;100109.84;;;4.94;78.42
71126;BME280;58785;55.566;38.058;2023-03-22T06:23:21;100107.75;;;4.86;78.14
71126;BME280;58785;55.566;38.058;2023-03-22T06:25:47;100113.97;;;4.85;78.52
71126;BME280;58785;55.566;38.058;2023-03-22T06:28:13;100119.75;;;4.90;78.53
71126;BME280;58785;55.566;38.058;2023-03-22T06:30:38;100121.69;;;4.88;78.30
71126;BME280;58785;55.566;38.058;2023-03-22T06:33:04;100118.66;;;4.81;78.39
71126;BME280;58785;55.566;38.058;2023-03-22T06:35:33;100130.25;;;4.79;78.16
71126;BME280;58785;55.566;38.058;2023-03-22T06:37:59;100120.78;;;4.76;78.05
71126;BME280;58785;55.566;38.058;2023-03-22T06:40:25;100134.69;;;4.91;77.54
71126;BME280;58785;55.566;38.058;2023-03-22T06:42:51;100127.38;;;4.95;77.44
71126;BME280;58785;55.566;38.058;2023-03-22T06:45:19;100129.91;;;4.96;77.02
71126;BME280;58785;55.566;38.058;2023-03-22T06:47:45;100136.75;;;4.99;76.86
71126;BME280;58785;55.566;38.058;2023-03-22T06:50:10;100134.69;;;4.91;76.83
71126;BME280;58785;55.566;38.058;2023-03-22T06:52:36;100142.28;;;4.96;76.18
71126;BME280;58785;55.566;38.058;2023-03-22T06:55:02;100141.31;;;4.97;76.82
71126;BME280;58785;55.566;38.058;2023-03-22T06:57:28;100143.28;;;5.06;76.40
71126;BME280;58785;55.566;38.058;2023-03-22T06:59:54;100141.53;;;5.17;75.91
71126;BME280;58785;55.566;38.058;2023-03-22T07:02:20;100134.50;;;5.29;75.39
71126;BME280;58785;55.566;38.058;2023-03-22T07:04:46;100137.94;;;5.42;75.29
71126;BME280;58785;55.566;38.058;2023-03-22T07:07:12;100137.31;;;5.39;75.20
71126;BME280;58785;55.566;38.058;2023-03-22T07:09:38;100141.28;;;5.33;74.99
71126;BME280;58785;55.566;38.058;2023-03-22T07:12:04;100147.59;;;5.31;75.20
71126;BME280;58785;55.566;38.058;2023-03-22T07:14:31;100138.28;;;5.38;74.58
71126;BME280;58785;55.566;38.058;2023-03-22T07:16:57;100151.94;;;5.56;75.19
71126;BME280;58785;55.566;38.058;2023-03-22T07:19:23;100152.94;;;5.66;74.28
71126;BME280;58785;55.566;38.058;2023-03-22T07:21:48;100162.69;;;5.65;74.30
71126;BME280;58785;55.566;38.058;2023-03-22T07:24:14;100159.19;;;5.65;74.10
71126;BME280;58785;55.566;38.058;2023-03-22T07:26:40;100155.72;;;5.75;74.03
71126;BME280;58785;55.566;38.058;2023-03-22T07:29:05;100170.25;;;5.70;73.67
71126;BME280;58785;55.566;38.058;2023-03-22T07:31:31;100173.84;;;5.69;74.26
71126;BME280;58785;55.566;38.058;2023-03-22T07:34:02;100164.28;;;5.79;73.43
71126;BME280;58785;55.566;38.058;2023-03-22T07:36:28;100158.84;;;5.93;73.28
71126;BME280;58785;55.566;38.058;2023-03-22T07:38:54;100168.84;;;6.12;72.97
71126;BME280;58785;55.566;38.058;2023-03-22T07:41:20;100170.06;;;6.30;72.92
71126;BME280;58785;55.566;38.058;2023-03-22T07:43:48;100168.50;;;6.28;72.84
71126;BME280;58785;55.566;38.058;2023-03-22T07:46:15;100178.97;;;6.41;72.55
71126;BME280;58785;55.566;38.058;2023-03-22T07:48:41;100177.81;;;6.45;72.28
71126;BME280;58785;55.566;38.058;2023-03-22T07:51:07;100176.13;;;6.44;71.97
71126;BME280;58785;55.566;38.058;2023-03-22T07:53:33;100189.34;;;6.44;72.01
71126;BME280;58785;55.566;38.058;2023-03-22T07:55:58;100186.56;;;6.34;72.44
71126;BME280;58785;55.566;38.058;2023-03-22T07:58:24;100192.97;;;6.31;72.69
71126;BME280;58785;55.566;38.058;2023-03-22T08:00:50;100194.28;;;6.37;72.20
71126;BME280;58785;55.566;38.058;2023-03-22T08:03:16;100188.50;;;6.43;71.57
71126;BME280;58785;55.566;38.058;2023-03-22T08:05:42;100190.78;;;6.59;72.17
71126;BME280;58785;55.566;38.058;2023-03-22T08:08:08;100176.94;;;6.67;70.88
71126;BME280;58785;55.566;38.058;2023-03-22T08:10:34;100193.94;;;6.86;70.73
71126;BME280;58785;55.566;38.058;2023-03-22T08:13:00;100181.66;;;6.85;70.35
71126;BME280;58785;55.566;38.058;2023-03-22T08:15:26;100185.94;;;7.09;70.19
71126;BME280;58785;55.566;38.058;2023-03-22T08:17:52;100188.81;;;7.17;70.06
71126;BME280;58785;55.566;38.058;2023-03-22T08:20:23;100187.59;;;7.21;69.60
71126;BME280;58785;55.566;38.058;2023-03-22T08:22:52;100189.16;;;7.35;69.03
71126;BME280;58785;55.566;38.058;2023-03-22T08:25:18;100193.84;;;7.42;68.84
71126;BME280;58785;55.566;38.058;2023-03-22T08:27:44;100185.88;;;7.42;68.59
71126;BME280;58785;55.566;38.058;2023-03-22T08:30:10;100185.41;;;7.37;68.82
71126;BME280;58785;55.566;38.058;2023-03-22T08:32:36;100196.38;;;7.33;68.50
71126;BME280;58785;55.566;38.058;2023-03-22T08:35:05;100193.38;;;7.26;68.65
71126;BME280;58785;55.566;38.058;2023-03-22T08:37:31;100201.91;;;7.30;68.85
71126;BME280;58785;55.566;38.058;2023-03-22T08:39:57;100201.59;;;7.23;69.16
71126;BME280;58785;55.566;38.058;2023-03-22T08:42:22;100197.34;;;7.20;68.93
71126;BME280;58785;55.566;38.058;2023-03-22T08:44:48;100203.59;;;7.31;69.02
71126;BME280;58785;55.566;38.058;2023-03-22T08:47:16;100196.13;;;7.36;68.05
71126;BME280;58785;55.566;38.058;2023-03-22T08:49:42;100201.41;;;7.47;67.91
71126;BME280;58785;55.566;38.058;2023-03-22T08:52:07;100208.91;;;7.42;67.56
71126;BME280;58785;55.566;38.058;2023-03-22T08:54:33;100204.53;;;7.41;67.59
71126;BME280;58785;55.566;38.058;2023-03-22T08:56:59;100207.94;;;7.43;67.96
71126;BME280;58785;55.566;38.058;2023-03-22T08:59:25;100205.50;;;7.40;67.50
71126;BME280;58785;55.566;38.058;2023-03-22T09:01:50;100193.59;;;7.34;67.80
71126;BME280;58785;55.566;38.058;2023-03-22T09:04:16;100203.25;;;7.35;68.35
71126;BME280;58785;55.566;38.058;2023-03-22T09:06:41;100205.38;;;7.41;67.43
71126;BME280;58785;55.566;38.058;2023-03-22T09:09:09;100203.56;;;7.53;67.28
71126;BME280;58785;55.566;38.058;2023-03-22T09:11:35;100200.13;;;7.73;67.38
71126;BME280;58785;55.566;38.058;2023-03-22T09:14:02;100188.28;;;7.98;66.37
71126;BME280;58785;55.566;38.058;2023-03-22T09:16:28;100196.16;;;8.30;66.01
71126;BME280;58785;55.566;38.058;2023-03-22T09:18:53;100198.78;;;8.62;65.25
71126;BME280;58785;55.566;38.058;2023-03-22T09:21:19;100184.13;;;8.78;65.09
71126;BME280;58785;55.566;38.058;2023-03-22T09:23:46;100200.97;;;8.88;64.77
71126;BME280;58785;55.566;38.058;2023-03-22T09:26:12;100199.13;;;8.88;64.63
71126;BME280;58785;55.566;38.058;2023-03-22T09:28:37;100198.44;;;8.86;65.07
71126;BME280;58785;55.566;38.058;2023-03-22T09:31:06;100202.91;;;8.86;64.49
71126;BME280;58785;55.566;38.058;2023-03-22T09:33:33;100198.72;;;8.83;65.09
71126;BME280;58785;55.566;38.058;2023-03-22T09:35:59;100207.44;;;8.95;64.85
71126;BME280;58785;55.566;38.058;2023-03-22T09:38:25;100215.84;;;9.00;64.38
71126;BME280;58785;55.566;38.058;2023-03-22T09:40:56;100210.38;;;9.02;64.49
71126;BME280;58785;55.566;38.058;2023-03-22T09:43:35;100215.69;;;9.02;64.10
71126;BME280;58785;55.566;38.058;2023-03-22T09:46:04;100219.09;;;9.04;64.27
71126;BME280;58785;55.566;38.058;2023-03-22T09:48:33;100221.47;;;9.07;64.27
71126;BME280;58785;55.566;38.058;2023-03-22T09:51:02;100216.31;;;9.15;63.67
71126;BME280;58785;55.566;38.058;2023-03-22T09:53:28;100217.00;;;9.17;63.88
71126;BME280;58785;55.566;38.058;2023-03-22T09:56:03;100222.22;;;9.28;63.88
71126;BME280;58785;55.566;38.058;2023-03-22T09:58:46;100225.59;;;9.40;63.55
71126;BME280;58785;55.566;38.058;2023-03-22T10:01:35;100220.28;;;9.49;63.05
71126;BME280;58785;55.566;38.058;2023-03-22T10:06:49;100218.59;;;9.39;63.06
71126;BME280;58785;55.566;38.058;2023-03-22T10:09:36;100207.25;;;9.27;62.93
71126;BME280;58785;55.566;38.058;2023-03-22T10:12:09;100218.03;;;9.26;63.08
71126;BME280;58785;55.566;38.058;2023-03-22T10:14:41;100208.88;;;9.18;62.99
71126;BME280;58785;55.566;38.058;2023-03-22T10:17:16;100213.28;;;9.39;62.62
71126;BME280;58785;55.566;38.058;2023-03-22T10:22:19;100209.28;;;9.73;62.20
71126;BME280;58785;55.566;38.058;2023-03-22T10:24:50;100202.53;;;9.79;61.85
71126;BME280;58785;55.566;38.058;2023-03-22T10:27:18;100202.66;;;9.87;61.76
71126;BME280;58785;55.566;38.058;2023-03-22T10:30:01;100209.28;;;10.02;61.87
71126;BME280;58785;55.566;38.058;2023-03-22T10:32:45;100210.50;;;10.08;61.57
71126;BME280;58785;55.566;38.058;2023-03-22T10:35:15;100210.50;;;9.98;61.80
71126;BME280;58785;55.566;38.058;2023-03-22T10:37:42;100208.28;;;9.94;61.65
71126;BME280;58785;55.566;38.058;2023-03-22T10:40:19;100204.63;;;9.85;61.75
71126;BME280;58785;55.566;38.058;2023-03-22T10:42:51;100207.16;;;9.87;61.86
71126;BME280;58785;55.566;38.058;2023-03-22T10:45:18;100199.88;;;9.89;61.33
71126;BME280;58785;55.566;38.058;2023-03-22T10:50:37;100192.56;;;10.10;60.52
71126;BME280;58785;55.566;38.058;2023-03-22T10:53:23;100203.78;;;10.04;61.47
71126;BME280;58785;55.566;38.058;2023-03-22T10:55:51;100195.94;;;10.02;60.99
71126;BME280;58785;55.566;38.058;2023-03-22T10:58:18;100204.06;;;10.01;61.53
71126;BME280;58785;55.566;38.058;2023-03-22T11:00:54;100197.78;;;9.92;61.07
71126;BME280;58785;55.566;38.058;2023-03-22T11:03:40;100198.72;;;9.82;61.84
71126;BME280;58785;55.566;38.058;2023-03-22T11:06:17;100207.00;;;9.88;61.14
71126;BME280;58785;55.566;38.058;2023-03-22T11:08:56;100199.47;;;9.93;60.99
71126;BME280;58785;55.566;38.058;2023-03-22T11:11:29;100208.84;;;9.97;61.22
71126;BME280;58785;55.566;38.058;2023-03-22T11:16:24;100217.81;;;9.87;61.36
71126;BME280;58785;55.566;38.058;2023-03-22T11:18:50;100206.72;;;9.82;60.85
71126;BME280;58785;55.566;38.058;2023-03-22T11:21:17;100205.88;;;9.71;60.96
71126;BME280;58785;55.566;38.058;2023-03-22T11:23:58;100214.72;;;9.62;61.20
71126;BME280;58785;55.566;38.058;2023-03-22T11:26:32;100212.59;;;9.46;61.74
71126;BME280;58785;55.566;38.058;2023-03-22T11:29:09;100205.28;;;9.29;61.75
71126;BME280;58785;55.566;38.058;2023-03-22T11:34:17;100205.09;;;9.11;62.55
71126;BME280;58785;55.566;38.058;2023-03-22T11:36:44;100207.63;;;9.13;62.35
71126;BME280;58785;55.566;38.058;2023-03-22T11:39:15;100204.56;;;9.17;62.17
71126;BME280;58785;55.566;38.058;2023-03-22T11:41:43;100193.53;;;9.22;61.87
71126;BME280;58785;55.566;38.058;2023-03-22T12:12:19;100191.88;;;9.60;59.21
71126;BME280;58785;55.566;38.058;2023-03-22T12:14:53;100181.34;;;9.48;59.98
71126;BME280;58785;55.566;38.058;2023-03-22T12:17:44;100197.59;;;9.45;59.59
71126;BME280;58785;55.566;38.058;2023-03-22T12:22:56;100194.22;;;9.24;60.36
71126;BME280;58785;55.566;38.058;2023-03-22T12:25:28;100204.28;;;9.20;60.54
71126;BME280;58785;55.566;38.058;2023-03-22T12:28:02;100202.84;;;9.07;60.36
71126;BME280;58785;55.566;38.058;2023-03-22T12:30:37;100196.66;;;8.97;60.53
71126;BME280;58785;55.566;38.058;2023-03-22T12:33:19;100202.38;;;8.92;60.89
71126;BME280;58785;55.566;38.058;2023-03-22T12:35:50;100201.22;;;8.85;60.94
71126;BME280;58785;55.566;38.058;2023-03-22T12:38:39;100201.91;;;8.77;61.31
71126;BME280;58785;55.566;38.058;2023-03-22T12:41:11;100207.16;;;8.68;61.26
71126;BME280;58785;55.566;38.058;2023-03-22T12:46:26;100189.22;;;8.60;61.49
71126;BME280;58785;55.566;38.058;2023-03-22T12:49:00;100195.69;;;8.67;61.92
71126;BME280;58785;55.566;38.058;2023-03-22T12:51:27;100194.72;;;8.68;61.92
71126;BME280;58785;55.566;38.058;2023-03-22T12:53:55;100195.03;;;8.75;61.68
71126;BME280;58785;55.566;38.058;2023-03-22T12:59:00;100182.47;;;8.86;61.73
71126;BME280;58785;55.566;38.058;2023-03-22T13:01:55;100191.63;;;8.93;62.22
71126;BME280;58785;55.566;38.058;2023-03-22T13:09:33;100182.53;;;9.06;61.83
71126;BME280;58785;55.566;38.058;2023-03-22T13:32:53;100170.41;;;9.13;61.36
71126;BME280;58785;55.566;38.058;2023-03-22T13:35:25;100172.75;;;9.06;61.74
71126;BME280;58785;55.566;38.058;2023-03-22T13:37:55;100172.56;;;8.98;62.07
71126;BME280;58785;55.566;38.058;2023-03-22T13:40:36;100175.06;;;8.90;62.53
71126;BME280;58785;55.566;38.058;2023-03-22T13:43:23;100180.94;;;8.84;62.20
71126;BME280;58785;55.566;38.058;2023-03-22T13:51:31;100181.56;;;8.67;62.56
71126;BME280;58785;55.566;38.058;2023-03-22T13:54:15;100163.72;;;8.48;62.22
71126;BME280;58785;55.566;38.058;2023-03-22T13:56:53;100175.59;;;8.44;62.76
71126;BME280;58785;55.566;38.058;2023-03-22T14:02:16;100163.56;;;8.28;63.26
71126;BME280;58785;55.566;38.058;2023-03-22T14:04:51;100165.06;;;8.21;63.43
71126;BME280;58785;55.566;38.058;2023-03-22T14:07:27;100178.47;;;8.20;63.15
71126;BME280;58785;55.566;38.058;2023-03-22T14:10:47;100172.97;;;8.12;63.54
71126;BME280;58785;55.566;38.058;2023-03-22T14:16:16;100163.94;;;7.93;63.46
71126;BME280;58785;55.566;38.058;2023-03-22T14:18:46;100162.50;;;7.89;63.55
71126;BME280;58785;55.566;38.058;2023-03-22T14:21:18;100161.91;;;7.86;64.36
71126;BME280;58785;55.566;38.058;2023-03-22T14:23:50;100151.81;;;7.79;64.05
71126;BME280;58785;55.566;38.058;2023-03-22T14:26:29;100156.75;;;7.84;64.26
71126;BME280;58785;55.566;38.058;2023-03-22T14:29:17;100150.72;;;7.82;64.64
71126;BME280;58785;55.566;38.058;2023-03-22T14:31:44;100147.09;;;7.83;64.46
71126;BME280;58785;55.566;38.058;2023-03-22T14:34:14;100156.22;;;7.90;64.01
71126;BME280;58785;55.566;38.058;2023-03-22T14:36:43;100153.81;;;7.87;63.81
71126;BME280;58785;55.566;38.058;2023-03-22T14:39:47;100146.75;;;7.76;64.96
71126;BME280;58785;55.566;38.058;2023-03-22T14:44:54;100143.59;;;7.62;65.01
71126;BME280;58785;55.566;38.058;2023-03-22T14:47:29;100153.81;;;7.66;65.26
71126;BME280;58785;55.566;38.058;2023-03-22T14:50:05;100154.91;;;7.64;64.66
71126;BME280;58785;55.566;38.058;2023-03-22T14:52:33;100153.47;;;7.60;65.49
71126;BME280;58785;55.566;38.058;2023-03-22T14:55:02;100149.13;;;7.59;64.99
71126;BME280;58785;55.566;38.058;2023-03-22T14:57:34;100159.03;;;7.57;65.70
71126;BME280;58785;55.566;38.058;2023-03-22T15:00:04;100149.06;;;7.49;65.33
71126;BME280;58785;55.566;38.058;2023-03-22T15:03:03;100155.31;;;7.48;65.81
71126;BME280;58785;55.566;38.058;2023-03-22T15:05:33;100145.34;;;7.40;65.95
71126;BME280;58785;55.566;38.058;2023-03-22T15:08:12;100156.56;;;7.44;65.42
71126;BME280;58785;55.566;38.058;2023-03-22T15:10:51;100159.22;;;7.44;66.27